Aérodrome :
LOGIN :

S'inscrire | Disclaimer

   EN    FR    IT 

 










Légende :    VFR   VFR Marginal   IFR   IFR Intensif   IFR Très Intensif
Visi : 
Plafond : 
>= 8 km
>= 3000ft
5 à 8 km
1000 à 3000 ft
1500m à 5 km
500 à 1000 ft
800 à 1500m
200 à 500 ft
< 800m
< 200 ft
Symboles :   Orages  Brouillard  Fortes neiges  Fortes précipitations  Vent > 20 kt
SIGMETs :   Divers  Orages  Givrage  Turbulence  Onde Orograph.  Cendres Volcan.







- Altitude de l'aérodrome : 5600 ft
- Code IATA : SMV


LSZS - Samedan

DERNIER METAR :
  • 230650Z 25004KT 200V290 9999 BKN023 M02/M05 Q1018 RMK A

METARs EXPIRÉS :
  • 230620Z AUTO VRB05KT 9999 OVC022 M02/M05 Q1018
  • 230550Z AUTO 19004KT 140V230 9999 BKN022 M01/M05 Q1018
  • 230520Z AUTO VRB04KT 9999 OVC020 M01/M05 Q1018
  • 230450Z AUTO 18006KT 9999 OVC019 M01/M04 Q1017
  • 230420Z AUTO 16005KT 120V190 9999 OVC019 01/M03 Q1017

TAF TAF LSZS
Valide du 23 à 06h jusqu'au 23 à 15h UTC


230525Z 2306/2315 18006KT 9999 OVC020 TX05/2314Z
BECMG 2310/2313 CAVOK
ATIS : +41 81 834 93 24
Pas de NOTAMs connus pour ce terrain.



MET'MAP, la Météo Aéronautique d'un coup d'oeil ! - Copyright ORBIFLY Décembre 2007 - Disclaimer

ORBIFLY MET'MAP TEAM :

Programmation & Développement : Alexandra Zaïnal
Conception & Développement : Baudouin d'Aumeries
Co-Programmation & Développement : Marc-Olivier Méhu
Soutien technique & logistique : Manuel Goepfert

Contact : metmap@orbifly.com




SOURCES & CREDITS :

   NOAA